createdAt,value
2018-02-06T00:01:47.443Z,58.60
2018-02-06T00:04:15.718Z,58.00
2018-02-06T00:06:43.598Z,58.00
2018-02-06T00:09:11.108Z,58.70
2018-02-06T00:11:38.659Z,61.10
2018-02-06T00:14:06.182Z,62.80
2018-02-06T00:16:33.761Z,63.00
2018-02-06T00:19:01.249Z,64.20
2018-02-06T00:21:28.894Z,64.80
2018-02-06T00:23:56.426Z,65.40
2018-02-06T00:26:24.608Z,65.80
2018-02-06T00:28:52.168Z,66.10
2018-02-06T00:31:19.701Z,66.30
2018-02-06T00:33:47.987Z,66.20
2018-02-06T00:36:15.523Z,66.20
2018-02-06T00:38:43.064Z,66.30
2018-02-06T00:41:10.566Z,66.70
2018-02-06T00:43:38.105Z,66.90
2018-02-06T00:46:06.564Z,66.70
2018-02-06T00:48:34.138Z,66.70
2018-02-06T00:51:01.805Z,66.30
2018-02-06T00:53:29.422Z,66.00
2018-02-06T00:55:56.977Z,66.00
2018-02-06T00:58:24.499Z,65.90
2018-02-06T01:00:52.014Z,66.00
2018-02-06T01:03:19.545Z,66.10
2018-02-06T01:05:47.058Z,66.10
2018-02-06T01:08:14.748Z,66.40
2018-02-06T01:10:42.256Z,66.80
2018-02-06T01:13:09.766Z,66.90
2018-02-06T01:15:38.090Z,67.00
2018-02-06T01:18:05.645Z,67.20
2018-02-06T01:20:33.931Z,66.80
2018-02-06T01:23:01.518Z,66.70
2018-02-06T01:25:29.453Z,66.70
2018-02-06T01:27:56.983Z,67.00
2018-02-06T01:30:24.614Z,66.90
2018-02-06T01:32:52.907Z,67.00
2018-02-06T01:35:20.408Z,67.70
2018-02-06T01:37:48.038Z,66.80
2018-02-06T01:40:15.589Z,66.90
2018-02-06T01:42:43.144Z,67.10
2018-02-06T01:45:10.909Z,67.20
2018-02-06T01:47:38.623Z,67.20
2018-02-06T01:50:06.275Z,67.70
2018-02-06T01:52:33.827Z,68.30
2018-02-06T01:55:01.352Z,68.30
2018-02-06T01:57:29.225Z,68.30
2018-02-06T01:59:56.726Z,68.70
2018-02-06T02:02:24.347Z,68.60
2018-02-06T02:04:51.886Z,68.70
2018-02-06T02:07:19.652Z,68.50
2018-02-06T02:09:47.164Z,68.40
2018-02-06T02:12:14.687Z,68.30
2018-02-06T02:14:42.251Z,68.50
2018-02-06T02:17:09.781Z,68.60
2018-02-06T02:19:37.342Z,68.50
2018-02-06T02:22:04.845Z,68.70
2018-02-06T02:24:32.420Z,69.60
2018-02-06T02:26:59.980Z,69.70
2018-02-06T02:29:27.569Z,69.40
2018-02-06T02:31:55.202Z,69.50
2018-02-06T02:34:22.935Z,69.70
2018-02-06T02:36:50.427Z,69.70
2018-02-06T02:39:18.032Z,69.70
2018-02-06T04:39:59.672Z,66.90
2018-02-06T04:42:27.161Z,65.80
2018-02-06T04:44:54.677Z,65.80
2018-02-06T04:47:22.620Z,65.10
2018-02-06T04:49:50.123Z,65.30
2018-02-06T04:52:17.759Z,65.40
2018-02-06T04:54:45.407Z,65.60
2018-02-06T04:57:13.686Z,65.40
2018-02-06T04:59:41.221Z,65.80
2018-02-06T05:02:09.632Z,64.90
2018-02-06T05:04:37.142Z,64.90
2018-02-06T05:07:04.645Z,65.10
2018-02-06T05:09:32.193Z,65.10
2018-02-06T05:11:59.699Z,66.10
2018-02-06T05:14:27.232Z,66.40
2018-02-06T05:16:54.923Z,65.80
2018-02-06T05:19:22.439Z,65.40
2018-02-06T05:21:50.108Z,65.70
2018-02-06T05:24:17.624Z,65.90
2018-02-06T05:26:45.168Z,65.70
2018-02-06T05:29:12.658Z,65.70
2018-02-06T05:31:40.203Z,66.20
2018-02-06T05:34:07.813Z,66.40
2018-02-06T05:36:35.335Z,67.30
2018-02-06T05:39:03.634Z,67.30
2018-02-06T05:41:31.163Z,67.20
2018-02-06T05:43:58.732Z,68.10
2018-02-06T05:46:27.277Z,70.30
2018-02-06T05:48:54.830Z,70.30
2018-02-06T05:51:22.558Z,69.60
2018-02-06T05:53:50.216Z,69.40
2018-02-06T05:56:17.707Z,68.40
2018-02-06T05:58:45.335Z,68.20
2018-02-06T06:01:14.034Z,68.20
2018-02-06T06:03:42.064Z,69.10
2018-02-06T06:06:09.570Z,68.60
2018-02-06T06:08:37.083Z,68.90
2018-02-06T06:11:04.610Z,69.30
2018-02-06T06:13:32.137Z,69.10
2018-02-06T06:15:59.673Z,69.00
2018-02-06T06:18:27.190Z,68.60
2018-02-06T06:20:54.691Z,68.70
2018-02-06T06:23:22.199Z,68.90
2018-02-06T06:25:49.727Z,69.30
2018-02-06T06:28:17.384Z,68.30
2018-02-06T06:30:45.162Z,67.70
2018-02-06T06:33:13.746Z,67.70
2018-02-06T06:35:41.261Z,67.60
2018-02-06T06:38:08.845Z,68.30
2018-02-06T06:40:36.366Z,67.90
2018-02-06T06:43:03.915Z,67.30
2018-02-06T06:45:32.142Z,66.60
2018-02-06T06:47:59.643Z,66.60
2018-02-06T06:50:27.484Z,66.10
2018-02-06T06:52:55.531Z,65.50
2018-02-06T06:55:23.789Z,64.60
2018-02-06T06:57:51.587Z,64.60
2018-02-06T07:00:19.522Z,64.40
2018-02-06T07:02:47.431Z,63.70
2018-02-06T07:05:14.991Z,63.20
2018-02-06T07:07:42.692Z,62.80
2018-02-06T07:10:10.253Z,62.30
2018-02-06T07:12:37.956Z,60.90
2018-02-06T07:15:06.464Z,59.50
2018-02-06T07:17:34.021Z,59.50
2018-02-06T07:20:01.532Z,59.00
2018-02-06T07:22:29.062Z,58.40
2018-02-06T07:24:56.770Z,57.60
2018-02-06T07:27:25.207Z,55.40
2018-02-06T07:29:52.738Z,55.40
2018-02-06T07:32:20.244Z,55.10
2018-02-06T07:34:47.735Z,55.10
2018-02-06T07:37:15.286Z,54.50
2018-02-06T07:39:43.576Z,55.60
2018-02-06T07:42:11.175Z,55.70
2018-02-06T07:44:38.794Z,55.90
2018-02-06T07:47:06.295Z,56.40
2018-02-06T07:49:33.799Z,55.80
2018-02-06T07:52:01.348Z,55.90
2018-02-06T07:54:29.178Z,55.00
2018-02-06T07:56:56.701Z,54.40
2018-02-06T07:59:24.346Z,54.30
2018-02-06T08:01:52.610Z,55.20
2018-02-06T08:04:21.750Z,55.80
2018-02-06T08:06:49.256Z,55.80
2018-02-06T08:09:16.742Z,54.80
2018-02-06T08:11:44.750Z,54.50
2018-02-06T08:14:12.495Z,53.30
2018-02-06T08:16:40.015Z,52.90
2018-02-06T08:19:07.499Z,52.50
2018-02-06T08:21:36.586Z,52.50
2018-02-06T08:24:05.075Z,52.50
2018-02-06T08:26:32.558Z,52.80
2018-02-06T08:29:00.217Z,52.60
2018-02-06T08:31:27.707Z,52.30
2018-02-06T08:33:55.390Z,52.50
2018-02-06T08:36:23.117Z,52.60
2018-02-06T08:38:50.630Z,53.40
2018-02-06T08:41:19.001Z,52.50
2018-02-06T08:43:46.583Z,52.50
2018-02-06T08:46:14.232Z,51.70
2018-02-06T08:48:43.167Z,52.30
2018-02-06T08:51:10.718Z,52.30
2018-02-06T08:53:38.243Z,52.80
2018-02-06T08:56:05.772Z,52.70
2018-02-06T08:58:33.306Z,53.10
2018-02-06T09:01:01.434Z,53.10
2018-02-06T09:03:29.035Z,52.90
2018-02-06T09:05:56.553Z,53.20
2018-02-06T09:08:24.887Z,54.00
2018-02-06T09:10:52.473Z,53.90
2018-02-06T09:13:20.031Z,55.50
2018-02-06T09:15:49.103Z,53.20
2018-02-06T09:18:16.912Z,53.20
2018-02-06T09:20:44.545Z,53.70
2018-02-06T09:23:12.375Z,53.30
2018-02-06T09:25:40.805Z,53.60
2018-02-06T09:28:08.776Z,53.80
2018-02-06T09:30:36.565Z,53.40
2018-02-06T09:33:04.299Z,53.60
2018-02-06T09:35:32.010Z,53.80
2018-02-06T09:38:00.199Z,54.50
2018-02-06T09:40:27.728Z,54.30
2018-02-06T09:42:55.564Z,54.40
2018-02-06T09:45:23.805Z,54.60
2018-02-06T09:47:51.351Z,54.50
2018-02-06T09:50:18.939Z,54.30
2018-02-06T09:52:46.562Z,54.60
2018-02-06T09:55:14.082Z,54.50
2018-02-06T09:57:42.090Z,54.30
2018-02-06T10:00:09.631Z,54.00
2018-02-06T10:02:37.905Z,53.90
2018-02-06T10:05:05.440Z,53.90
2018-02-06T10:07:32.968Z,53.50
2018-02-06T10:10:01.353Z,53.60
2018-02-06T10:12:29.428Z,53.80
2018-02-06T10:14:57.697Z,53.70
2018-02-06T10:17:25.394Z,53.60
2018-02-06T10:19:52.976Z,53.10
2018-02-06T10:22:21.708Z,52.90
2018-02-06T10:24:49.295Z,52.90
2018-02-06T10:27:16.875Z,52.40
2018-02-06T10:29:45.165Z,52.70
2018-02-06T10:32:14.566Z,53.30
2018-02-06T10:34:43.008Z,53.30
2018-02-06T10:37:11.347Z,53.30
2018-02-06T10:39:39.086Z,52.10
2018-02-06T10:42:06.941Z,52.00
2018-02-06T10:44:35.252Z,52.10
2018-02-06T10:47:02.783Z,52.10
2018-02-06T10:49:30.340Z,51.60
2018-02-06T10:51:57.937Z,51.80
2018-02-06T10:54:25.513Z,56.00
2018-02-06T10:56:53.082Z,53.00
2018-02-06T10:59:20.643Z,51.50
2018-02-06T11:01:48.571Z,51.60
2018-02-06T11:04:16.909Z,50.70
2018-02-06T11:06:44.642Z,50.70
2018-02-06T11:09:12.418Z,50.90
2018-02-06T11:11:39.912Z,50.30
2018-02-06T11:14:08.377Z,51.60
2018-02-06T11:16:35.931Z,51.10
2018-02-06T11:19:03.962Z,50.70
2018-02-06T11:21:31.522Z,50.40
2018-02-06T11:23:59.097Z,50.80
2018-02-06T11:26:26.849Z,50.00
2018-02-06T11:28:54.498Z,50.10
2018-02-06T11:31:22.232Z,49.80
2018-02-06T11:33:51.353Z,50.10
2018-02-06T11:36:19.857Z,49.30
2018-02-06T11:38:47.414Z,49.90
2018-02-06T11:41:15.142Z,48.80
2018-02-06T11:43:42.687Z,48.40
2018-02-06T11:46:10.259Z,48.70
2018-02-06T11:48:37.790Z,48.50
2018-02-06T11:51:05.426Z,48.50
2018-02-06T11:53:32.973Z,48.10
2018-02-06T11:56:00.508Z,47.50
2018-02-06T11:58:28.023Z,47.20
2018-02-06T12:00:56.338Z,47.70
2018-02-06T12:03:25.467Z,47.10
2018-02-06T12:05:53.161Z,47.00
2018-02-06T12:08:21.420Z,46.40
2018-02-06T12:10:50.007Z,45.90
2018-02-06T12:13:17.595Z,45.90
2018-02-06T12:15:45.139Z,45.30
2018-02-06T12:18:12.837Z,46.00
2018-02-06T12:20:41.030Z,45.90
2018-02-06T12:23:09.335Z,46.30
2018-02-06T12:25:36.984Z,46.30
2018-02-06T12:28:04.590Z,46.10
2018-02-06T12:30:32.121Z,45.20
2018-02-06T12:32:59.704Z,45.10
2018-02-06T12:35:27.346Z,46.20
2018-02-06T12:37:54.997Z,45.70
2018-02-06T12:40:22.553Z,45.70
2018-02-06T12:42:50.179Z,45.70
2018-02-06T12:45:18.707Z,44.60
2018-02-06T12:47:47.275Z,44.60
2018-02-06T12:50:15.160Z,43.90
2018-02-06T12:52:42.728Z,43.20
2018-02-06T12:55:11.514Z,43.20
2018-02-06T12:57:39.012Z,43.10
2018-02-06T13:00:07.028Z,42.40
2018-02-06T13:02:34.572Z,42.70
2018-02-06T13:05:02.177Z,43.40
2018-02-06T13:07:29.711Z,42.90
2018-02-06T13:09:57.297Z,42.40
2018-02-06T13:12:24.931Z,42.00
2018-02-06T13:14:53.187Z,43.10
2018-02-06T13:17:20.781Z,42.80
2018-02-06T13:19:48.440Z,41.30
2018-02-06T13:22:15.984Z,41.70
2018-02-06T13:24:43.543Z,42.10
2018-02-06T13:27:11.038Z,41.30
2018-02-06T13:29:39.500Z,41.60
2018-02-06T13:32:07.959Z,41.80
2018-02-06T13:34:35.653Z,42.00
2018-02-06T13:37:03.407Z,42.30
2018-02-06T13:39:31.232Z,43.20
2018-02-06T13:41:58.815Z,42.40
2018-02-06T13:44:26.640Z,42.60
2018-02-06T13:46:54.958Z,41.90
2018-02-06T13:49:22.597Z,41.90
2018-02-06T13:51:50.577Z,41.80
2018-02-06T13:54:18.681Z,41.70
2018-02-06T13:56:46.311Z,40.40
2018-02-06T13:59:13.983Z,40.00
2018-02-06T14:01:41.576Z,40.10
2018-02-06T14:04:09.399Z,40.40
2018-02-06T14:06:36.929Z,40.80
2018-02-06T14:09:04.508Z,40.80
2018-02-06T14:11:32.848Z,40.30
2018-02-06T14:14:00.421Z,40.20
2018-02-06T14:16:27.975Z,40.70
2018-02-06T14:18:55.586Z,41.00
2018-02-06T14:21:23.155Z,41.30
2018-02-06T14:23:51.267Z,41.40
2018-02-06T14:26:19.544Z,41.90
2018-02-06T14:28:47.968Z,40.90
2018-02-06T14:31:15.587Z,41.10
2018-02-06T14:33:43.182Z,41.30
2018-02-06T14:36:11.633Z,40.40
2018-02-06T14:38:39.173Z,40.50
2018-02-06T14:41:07.162Z,40.10
2018-02-06T14:43:34.711Z,39.90
2018-02-06T14:46:02.574Z,40.10
2018-02-06T14:48:30.118Z,40.00
2018-02-06T14:50:57.725Z,40.60
2018-02-06T14:53:25.270Z,40.70
2018-02-06T14:55:53.496Z,40.90
2018-02-06T14:58:21.673Z,40.90
2018-02-06T15:00:49.492Z,41.20
2018-02-06T15:03:17.140Z,41.10
2018-02-06T15:05:44.692Z,41.00
2018-02-06T15:08:12.500Z,41.00
2018-02-06T15:10:41.046Z,41.00
2018-02-06T15:13:08.845Z,40.30
2018-02-06T15:15:36.545Z,40.90
2018-02-06T15:18:04.142Z,40.90
2018-02-06T15:20:31.907Z,41.40
2018-02-06T15:22:59.620Z,41.70
2018-02-06T15:25:27.237Z,42.10
2018-02-06T15:27:56.870Z,42.60
2018-02-06T15:30:26.520Z,42.70
2018-02-06T15:32:54.780Z,42.70
2018-02-06T15:35:23.443Z,43.00
2018-02-06T15:37:52.063Z,43.20
2018-02-06T15:40:19.808Z,43.20
2018-02-06T15:42:47.564Z,43.20
2018-02-06T15:45:15.253Z,43.30
2018-02-06T15:47:42.987Z,43.60
2018-02-06T15:50:11.200Z,43.80
2018-02-06T15:52:38.799Z,44.20
2018-02-06T15:55:06.360Z,44.40
2018-02-06T15:57:33.945Z,44.50
2018-02-06T16:00:02.273Z,44.60
2018-02-06T16:02:30.442Z,44.60
2018-02-06T16:04:58.003Z,44.90
2018-02-06T16:07:25.576Z,44.60
2018-02-06T16:09:53.887Z,44.20
2018-02-06T16:12:21.571Z,44.20
2018-02-06T16:14:49.097Z,44.30
2018-02-06T16:17:17.570Z,44.70
2018-02-06T16:19:45.281Z,44.60
2018-02-06T16:22:12.867Z,45.10
2018-02-06T16:24:41.168Z,45.00
2018-02-06T16:27:08.750Z,44.80
2018-02-06T16:29:36.360Z,44.70
2018-02-06T16:32:04.374Z,44.80
2018-02-06T16:34:32.063Z,44.90
2018-02-06T16:37:00.298Z,44.60
2018-02-06T16:42:02.475Z,44.50
2018-02-06T16:44:30.361Z,44.60
2018-02-06T16:46:58.828Z,45.00
2018-02-06T16:49:26.528Z,44.40
2018-02-06T16:51:54.655Z,44.10
2018-02-06T16:54:22.210Z,44.20
2018-02-06T16:56:49.876Z,44.40
2018-02-06T16:59:17.391Z,44.40
2018-02-06T17:01:44.975Z,44.40
2018-02-06T17:04:13.439Z,44.20
2018-02-06T17:06:41.025Z,44.10
2018-02-06T17:09:08.556Z,44.10
2018-02-06T17:11:36.082Z,44.20
2018-02-06T17:14:03.865Z,44.20
2018-02-06T17:16:31.442Z,44.10
2018-02-06T17:18:59.047Z,44.00
2018-02-06T17:21:26.592Z,43.80
2018-02-06T17:23:54.139Z,44.00
2018-02-06T17:26:21.706Z,43.90
2018-02-06T17:28:49.374Z,43.60
2018-02-06T17:31:17.368Z,43.50
2018-02-06T17:33:44.932Z,43.80
2018-02-06T17:36:13.096Z,44.00
2018-02-06T17:38:40.606Z,43.70
2018-02-06T17:41:09.845Z,44.10
2018-02-06T17:43:38.640Z,44.10
2018-02-06T17:46:06.463Z,44.30
2018-02-06T17:48:34.011Z,44.10
2018-02-06T17:51:01.577Z,43.90
2018-02-06T17:53:29.127Z,43.90
2018-02-06T17:55:56.646Z,43.30
2018-02-06T17:58:24.171Z,43.40
2018-02-06T18:00:51.818Z,43.40
2018-02-06T18:03:19.679Z,43.20
2018-02-06T18:05:47.330Z,43.00
2018-02-06T18:08:14.930Z,43.20
2018-02-06T18:10:42.538Z,43.30
2018-02-06T18:13:10.207Z,43.20
2018-02-06T18:15:38.816Z,43.00
2018-02-06T18:18:07.193Z,43.60
2018-02-06T18:20:34.769Z,43.00
2018-02-06T18:23:02.327Z,43.40
2018-02-06T18:25:30.016Z,43.60
2018-02-06T18:27:58.439Z,43.40
2018-02-06T18:30:26.035Z,43.30
2018-02-06T18:32:53.656Z,43.30
2018-02-06T18:35:21.821Z,43.60
2018-02-06T18:37:50.570Z,42.60
2018-02-06T18:40:18.210Z,42.50
2018-02-06T18:42:45.753Z,43.00
2018-02-06T18:45:13.343Z,42.70
2018-02-06T18:47:40.997Z,42.30
2018-02-06T18:50:08.670Z,42.90
2018-02-06T18:52:36.219Z,43.10
2018-02-06T18:55:03.734Z,43.00
2018-02-06T18:57:31.329Z,43.20
2018-02-06T18:59:59.616Z,43.30
2018-02-06T19:02:27.273Z,42.80
2018-02-06T19:04:54.825Z,43.10
2018-02-06T19:07:22.536Z,42.80
2018-02-06T19:09:50.083Z,43.30
2018-02-06T19:12:17.666Z,43.50
2018-02-06T19:14:45.238Z,43.60
2018-02-06T19:17:12.915Z,43.90
2018-02-06T19:19:40.641Z,44.00
2018-02-06T19:22:08.153Z,43.90
2018-02-06T19:24:35.687Z,43.80
2018-02-06T19:27:03.255Z,43.90
2018-02-06T19:29:31.658Z,44.30
2018-02-06T19:31:59.737Z,44.30
2018-02-06T19:34:27.282Z,43.90
2018-02-06T19:36:54.805Z,43.60
2018-02-06T19:39:22.324Z,43.60
2018-02-06T19:41:49.874Z,43.70
2018-02-06T19:44:17.405Z,43.20
2018-02-06T19:46:44.970Z,42.90
2018-02-06T19:49:12.498Z,43.30
2018-02-06T19:51:40.997Z,43.40
2018-02-06T19:54:10.424Z,42.90
2018-02-06T19:56:37.950Z,42.90
2018-02-06T19:59:05.854Z,43.20
2018-02-06T20:01:33.898Z,43.20
2018-02-06T20:04:02.375Z,43.70
2018-02-06T20:06:30.683Z,43.30
2018-02-06T20:08:58.405Z,43.30
2018-02-06T20:11:25.958Z,43.60
2018-02-06T20:13:53.926Z,43.70
2018-02-06T20:16:21.423Z,44.10
2018-02-06T20:18:49.366Z,44.00
2018-02-06T20:21:17.864Z,44.40
2018-02-06T20:23:46.138Z,44.40
2018-02-06T20:26:14.472Z,44.50
2018-02-06T20:28:42.248Z,44.50
2018-02-06T20:31:10.580Z,44.40
2018-02-06T20:33:38.088Z,44.60
2018-02-06T20:36:05.637Z,44.60
2018-02-06T20:38:33.170Z,44.80
2018-02-06T20:41:00.868Z,45.10
2018-02-06T20:43:28.426Z,45.20
2018-02-06T20:45:56.037Z,45.20
2018-02-06T20:48:24.541Z,45.00
2018-02-06T20:50:52.160Z,45.30
2018-02-06T20:53:19.867Z,45.30
2018-02-06T20:55:47.554Z,45.50
2018-02-06T20:58:15.834Z,45.40
2018-02-06T21:00:43.355Z,45.40
2018-02-06T21:03:11.522Z,45.40
2018-02-06T21:05:39.163Z,45.40
2018-02-06T21:08:07.553Z,45.30
2018-02-06T21:10:35.333Z,45.30
2018-02-06T21:13:02.834Z,45.70
2018-02-06T21:15:31.160Z,45.40
2018-02-06T21:17:58.696Z,45.40
2018-02-06T21:20:27.312Z,45.50
2018-02-06T21:22:55.382Z,45.50
2018-02-06T21:25:23.215Z,45.70
2018-02-06T21:27:50.723Z,45.50
2018-02-06T21:30:18.279Z,45.50
2018-02-06T21:32:45.914Z,45.40
2018-02-06T21:35:13.419Z,45.50
2018-02-06T21:37:40.944Z,45.40
2018-02-06T21:40:08.486Z,45.30
2018-02-06T21:42:36.673Z,45.60
2018-02-06T21:45:04.215Z,45.40
2018-02-06T21:47:31.878Z,45.30
2018-02-06T21:49:59.716Z,45.50
2018-02-06T21:52:27.359Z,45.60
2018-02-06T21:54:55.484Z,45.70
2018-02-06T21:57:23.165Z,45.70
2018-02-06T21:59:50.871Z,45.70
2018-02-06T22:02:18.918Z,46.00
2018-02-06T22:04:48.058Z,45.60
2018-02-06T22:07:15.786Z,45.60
2018-02-06T22:09:43.803Z,45.60
2018-02-06T22:12:12.080Z,45.90
2018-02-06T22:14:39.606Z,45.90
2018-02-06T22:17:07.218Z,46.30
2018-02-06T22:19:34.743Z,46.60
2018-02-06T22:22:02.373Z,46.90
2018-02-06T22:24:30.739Z,47.10
2018-02-06T22:26:58.288Z,47.20
2018-02-06T22:29:25.847Z,47.40
2018-02-06T22:31:53.461Z,47.20
2018-02-06T22:34:21.032Z,47.40
2018-02-06T22:36:49.314Z,47.20
2018-02-06T22:39:21.527Z,47.20
2018-02-06T22:41:49.050Z,47.20
2018-02-06T22:44:16.823Z,47.20
2018-02-06T22:46:46.106Z,47.40
2018-02-06T22:49:14.618Z,48.00
2018-02-06T22:51:42.152Z,47.50
2018-02-06T22:54:10.567Z,47.50
2018-02-06T22:56:38.261Z,47.50
2018-02-06T22:59:05.803Z,47.70
2018-02-06T23:01:33.324Z,47.90
2018-02-06T23:04:01.593Z,48.30
2018-02-06T23:06:29.981Z,48.20
2018-02-06T23:08:57.672Z,48.20
2018-02-06T23:11:25.232Z,48.30
2018-02-06T23:13:52.777Z,48.50
2018-02-06T23:16:20.559Z,48.50
2018-02-06T23:18:48.720Z,48.90
2018-02-06T23:21:16.446Z,48.90
2018-02-06T23:23:44.933Z,49.30
2018-02-06T23:26:13.318Z,49.30
2018-02-06T23:28:41.617Z,49.60
2018-02-06T23:31:09.184Z,49.60
2018-02-06T23:33:36.861Z,49.60
2018-02-06T23:36:04.588Z,49.80
2018-02-06T23:38:32.874Z,50.00
2018-02-06T23:41:00.469Z,50.10
2018-02-06T23:43:28.150Z,50.40
2018-02-06T23:45:56.471Z,50.40
2018-02-06T23:48:24.147Z,50.40
2018-02-06T23:50:51.858Z,50.40
2018-02-06T23:53:19.399Z,50.60
2018-02-06T23:55:47.022Z,50.80
2018-02-06T23:58:14.661Z,51.00
